Time;durP1;ratioP1;P1;durP2;ratioP2;P2;SDS_P1;SDS_P2;PMS_P1;PMS_P2;Temp;Humidity;BMP_temperature;BMP_pressure;BME280_temperature;BME280_humidity;BME280_pressure;Samples;Min_cycle;Max_cycle;Signal;HPM_P1;HPM_P2
2022/06/24 07:32:56;;;;;;;16.40;7.68;;;;;;;20.66;60.61;100691.38;5112776;27;20470;-45
2022/06/24 07:35:24;;;;;;;16.73;7.78;;;;;;;20.56;60.91;100692.00;5113643;28;20043;-45
2022/06/24 07:37:52;;;;;;;17.77;8.02;;;;;;;20.56;60.94;100686.69;5098478;28;20058;-45
2022/06/24 07:40:19;;;;;;;15.90;7.78;;;;;;;20.54;61.13;100680.56;5094978;28;20046;-47
2022/06/24 07:42:47;;;;;;;19.23;7.53;;;;;;;20.49;61.57;100674.66;5078055;28;20016;-47
2022/06/24 07:45:15;;;;;;;15.98;7.30;;;;;;;20.47;61.34;100672.06;5112027;28;20024;-45
2022/06/24 07:47:40;;;;;;;15.63;7.38;;;;;;;20.47;61.48;100673.88;5112317;28;20031;-43
2022/06/24 07:50:06;;;;;;;13.10;6.93;;;;;;;20.49;61.45;100669.34;5112410;28;20047;-45
2022/06/24 07:52:31;;;;;;;16.95;7.15;;;;;;;20.48;61.99;100670.28;5077659;28;20044;-45
2022/06/24 07:57:43;;;;;;;12.57;7.10;;;;;;;20.51;61.22;100662.13;5112123;28;20030;-42
2022/06/24 08:00:14;;;;;;;10.85;7.35;;;;;;;20.62;60.78;100665.06;5112056;28;20034;-44
2022/06/24 08:02:39;;;;;;;14.15;7.35;;;;;;;20.78;59.67;100657.94;5112019;28;20422;-45
2022/06/24 08:05:05;;;;;;;9.88;6.70;;;;;;;20.86;58.33;100658.38;5111884;28;20042;-44
2022/06/24 08:07:30;;;;;;;8.35;6.07;;;;;;;20.95;57.37;100656.13;5111997;28;20073;-45
2022/06/24 08:09:58;;;;;;;7.90;6.43;;;;;;;21.03;56.88;100653.88;5091074;28;20035;-42
2022/06/24 08:12:25;;;;;;;11.10;5.68;;;;;;;21.04;55.82;100650.25;5087691;28;20020;-43
2022/06/24 08:14:51;;;;;;;7.47;5.95;;;;;;;21.08;56.06;100652.66;5111600;28;20035;-44
2022/06/24 08:17:16;;;;;;;8.75;5.97;;;;;;;21.09;55.52;100656.16;5111713;28;20039;-41
2022/06/24 08:19:41;;;;;;;6.60;5.60;;;;;;;21.14;55.17;100651.47;5093787;28;20042;-44
2022/06/24 08:22:07;;;;;;;8.15;5.35;;;;;;;21.19;55.83;100653.81;5111354;28;20038;-46
2022/06/24 08:24:35;;;;;;;6.47;5.15;;;;;;;21.16;54.81;100643.38;5111526;28;20028;-49
2022/06/24 08:27:02;;;;;;;8.60;5.65;;;;;;;21.22;55.23;100632.38;5111407;28;20052;-44
2022/06/24 08:29:30;;;;;;;10.50;5.68;;;;;;;21.21;55.15;100631.53;5093728;28;20055;-44
2022/06/24 08:31:56;;;;;;;5.78;4.53;;;;;;;21.25;54.81;100627.72;5111144;28;20023;-43
2022/06/24 08:34:21;;;;;;;5.75;4.97;;;;;;;21.25;54.91;100626.88;5093533;28;20028;-49
2022/06/24 08:36:47;;;;;;;7.60;4.65;;;;;;;21.26;54.70;100626.78;5111273;28;20027;-44
2022/06/24 08:39:15;;;;;;;5.13;4.53;;;;;;;21.25;53.82;100627.72;5111304;28;20433;-45
2022/06/24 08:41:41;;;;;;;6.63;4.53;;;;;;;21.34;53.80;100628.13;5111231;28;20028;-46
2022/06/24 08:44:09;;;;;;;5.85;4.78;;;;;;;21.34;53.61;100610.38;5064069;28;20024;-46
2022/06/24 08:46:34;;;;;;;9.10;4.82;;;;;;;21.32;53.47;100609.59;5063652;28;20024;-45
2022/06/24 08:49:02;;;;;;;6.00;4.60;;;;;;;21.34;53.83;100606.88;5097410;28;20038;-47
2022/06/24 08:51:28;;;;;;;7.18;5.10;;;;;;;21.40;54.22;100619.81;5097673;28;20318;-47
2022/06/24 08:54:06;;;;;;;5.50;4.50;;;;;;;21.39;54.33;100607.44;5079686;28;20031;-48
2022/06/24 08:56:31;;;;;;;5.65;4.70;;;;;;;21.37;52.86;100601.34;5097310;28;20020;-46
2022/06/24 08:58:57;;;;;;;8.35;5.07;;;;;;;21.36;53.12;100602.31;5062845;28;20036;-48
2022/06/24 09:01:23;;;;;;;8.00;5.00;;;;;;;21.37;52.96;100602.19;5079415;28;20035;-45
2022/06/24 09:03:49;;;;;;;7.07;4.88;;;;;;;21.40;53.52;100602.06;5097182;28;20020;-52
2022/06/24 09:06:15;;;;;;;6.47;4.75;;;;;;;21.21;54.10;100593.44;5079600;28;20050;-45
2022/06/24 09:08:44;;;;;;;6.40;5.07;;;;;;;21.20;53.94;100600.56;5079531;28;20091;-48
2022/06/24 09:11:11;;;;;;;5.88;4.53;;;;;;;21.18;54.20;100593.63;5063229;28;20101;-47
2022/06/24 09:13:52;;;;;;;7.63;4.95;;;;;;;21.22;53.84;100593.34;5097222;28;20036;-48
2022/06/24 09:16:21;;;;;;;5.53;4.85;;;;;;;21.24;53.62;100588.81;5096813;28;20035;-45
2022/06/24 09:18:51;;;;;;;25.50;6.20;;;;;;;21.25;53.21;100585.19;5062962;28;20048;-44
2022/06/24 09:21:31;;;;;;;17.40;6.03;;;;;;;21.24;53.69;100591.47;5097052;28;20043;-43
2022/06/24 09:24:01;;;;;;;26.42;6.65;;;;;;;21.24;53.40;100588.81;5096669;28;20035;-43
2022/06/24 09:26:43;;;;;;;12.75;5.53;;;;;;;21.22;53.50;100598.66;5079016;28;20049;-42
2022/06/24 09:29:14;;;;;;;9.52;5.00;;;;;;;21.19;53.36;100590.88;5096673;28;20027;-42
2022/06/24 09:31:40;;;;;;;9.82;4.88;;;;;;;21.16;53.38;100585.72;5062170;28;20109;-44
2022/06/24 09:34:11;;;;;;;5.75;4.43;;;;;;;21.17;52.86;100587.47;5096487;28;20442;-43
2022/06/24 09:36:37;;;;;;;6.30;4.35;;;;;;;21.17;52.96;100574.16;5096567;28;20020;-44
2022/06/24 09:39:08;;;;;;;9.00;4.50;;;;;;;21.16;52.40;100574.25;5098334;28;20047;-43
2022/06/24 09:41:47;;;;;;;5.00;4.50;;;;;;;21.17;52.18;100568.84;5083305;28;20027;-43
2022/06/24 09:44:13;;;;;;;8.80;5.85;;;;;;;21.21;52.87;100562.41;5083435;28;20035;-42
2022/06/24 09:46:40;;;;;;;19.60;16.42;;;;;;;21.18;53.40;100557.25;5099295;28;20092;-41
2022/06/24 09:49:09;;;;;;;58.42;45.78;;;;;;;21.17;54.47;100566.19;5080286;28;20035;-41
2022/06/24 09:51:34;;;;;;;25.88;20.70;;;;;;;21.17;53.01;100554.72;5096439;28;20020;-42
2022/06/24 09:54:03;;;;;;;20.10;17.23;;;;;;;21.17;53.26;100550.25;5095626;28;20088;-41
2022/06/24 09:56:28;;;;;;;33.75;23.85;;;;;;;21.15;53.99;100553.94;5095502;28;20106;-42
2022/06/24 10:01:39;;;;;;;56.28;18.02;;;;;;;21.32;52.81;100544.94;5082610;28;20657;-44
2022/06/24 10:04:06;;;;;;;71.13;45.58;;;;;;;21.31;56.67;100545.91;5050821;28;20497;-60
2022/06/24 10:06:32;;;;;;;79.63;57.10;;;;;;;21.26;58.12;100549.69;5081673;28;20036;-46
2022/06/24 10:08:57;;;;;;;33.72;21.77;;;;;;;21.28;56.39;100542.47;5045331;28;20028;-46
2022/06/24 10:11:25;;;;;;;21.77;14.23;;;;;;;21.17;54.18;100542.25;5065945;28;20434;-46
2022/06/24 10:13:50;;;;;;;32.42;22.67;;;;;;;21.21;54.37;100541.13;5061970;28;20180;-49
2022/06/24 10:16:18;;;;;;;69.88;45.38;;;;;;;21.05;54.94;100537.69;5095850;28;20031;-44
2022/06/24 10:18:45;;;;;;;90.25;60.53;;;;;;;20.95;57.12;100534.72;5078554;28;20032;-44
2022/06/24 10:21:11;;;;;;;109.03;74.72;;;;;;;20.86;57.38;100533.47;5078743;28;20092;-47
2022/06/24 10:23:43;;;;;;;125.45;83.55;;;;;;;20.81;57.71;100527.59;5095803;28;20024;-45
2022/06/24 10:26:16;;;;;;;173.80;112.30;;;;;;;20.80;57.62;100520.53;5095496;28;20024;-45
2022/06/24 10:29:05;;;;;;;165.45;110.75;;;;;;;20.78;57.82;100535.72;5095738;28;20023;-45
2022/06/24 10:31:49;;;;;;;66.38;42.75;;;;;;;21.05;53.36;100529.72;5095317;28;20024;-43
2022/06/24 10:34:29;;;;;;;36.10;21.95;;;;;;;21.17;52.52;100523.66;5095511;28;20032;-43
2022/06/24 10:37:10;;;;;;;41.75;27.33;;;;;;;21.19;52.25;100520.88;5095173;28;20051;-46
2022/06/24 10:39:48;;;;;;;20.67;14.50;;;;;;;21.24;51.59;100509.03;5095514;28;20028;-41
2022/06/24 10:42:21;;;;;;;24.35;16.33;;;;;;;21.28;50.72;100505.25;5077297;28;20398;-41
2022/06/24 10:45:04;;;;;;;39.95;30.25;;;;;;;21.24;51.61;100493.09;5077618;28;20106;-42
2022/06/24 10:47:43;;;;;;;59.72;43.42;;;;;;;21.31;50.97;100514.84;5077391;28;20030;-46
2022/06/24 10:50:13;;;;;;;35.53;26.67;;;;;;;21.36;51.26;100496.78;5095417;28;20039;-45
2022/06/24 10:52:48;;;;;;;43.92;31.30;;;;;;;21.39;51.49;100501.91;5095173;28;20024;-44
2022/06/24 10:55:28;;;;;;;40.90;31.48;;;;;;;21.37;51.61;100494.97;5095168;28;20035;-44
2022/06/24 10:58:01;;;;;;;16.30;13.05;;;;;;;21.35;51.61;100488.88;5094890;28;20081;-43
2022/06/24 11:00:54;;;;;;;11.18;8.20;;;;;;;21.37;52.01;100482.53;5095065;28;20457;-50
2022/06/24 11:03:34;;;;;;;8.45;6.65;;;;;;;21.37;52.59;100487.00;5095045;28;20028;-42
2022/06/24 11:06:00;;;;;;;10.45;5.97;;;;;;;21.34;51.94;100482.72;5094667;28;20465;-44
2022/06/24 11:08:25;;;;;;;8.00;5.47;;;;;;;21.35;51.73;100473.78;5077171;28;20048;-43
2022/06/24 11:10:53;;;;;;;7.70;5.38;;;;;;;21.35;51.87;100472.94;5076930;28;20058;-44
2022/06/24 11:13:23;;;;;;;6.28;5.18;;;;;;;21.44;51.68;100461.75;5077004;28;20031;-47
2022/06/24 11:15:54;;;;;;;9.98;5.15;;;;;;;21.46;52.33;100465.16;5077191;28;20043;-42
2022/06/24 11:18:21;;;;;;;7.05;5.43;;;;;;;21.43;52.15;100460.06;5094755;28;20047;-42
2022/06/24 11:20:52;;;;;;;26.25;19.63;;;;;;;21.52;51.97;100462.13;5095003;28;20028;-45
2022/06/24 11:23:18;;;;;;;24.55;17.88;;;;;;;21.36;52.79;100459.56;5077018;28;20229;-47
2022/06/24 11:25:51;;;;;;;28.98;21.50;;;;;;;21.28;53.03;100449.41;5077034;28;20050;-46
2022/06/24 11:28:26;;;;;;;32.50;22.00;;;;;;;21.35;53.28;100451.66;5060906;28;20073;-44
2022/06/24 11:30:56;;;;;;;29.63;21.25;;;;;;;21.37;53.43;100439.97;5094308;28;20032;-43
2022/06/24 11:33:21;;;;;;;21.65;17.23;;;;;;;21.42;53.51;100442.38;5075215;28;20104;-45
2022/06/24 11:35:50;;;;;;;18.98;15.48;;;;;;;21.42;53.56;100437.06;5093050;28;20495;-46
2022/06/24 11:38:16;;;;;;;14.38;10.48;;;;;;;21.39;53.42;100442.53;5074867;28;20024;-42
2022/06/24 11:40:41;;;;;;;13.95;10.77;;;;;;;21.40;53.44;100434.50;5092491;28;20023;-43
2022/06/24 11:43:12;;;;;;;13.82;10.35;;;;;;;21.41;53.74;100438.88;5058772;28;20020;-43
2022/06/24 11:45:44;;;;;;;11.88;8.75;;;;;;;21.45;53.18;100436.88;5058306;28;20032;-43
2022/06/24 11:48:12;;;;;;;11.73;7.55;;;;;;;21.43;53.52;100438.78;5092761;28;20037;-42
2022/06/24 11:50:38;;;;;;;8.38;7.38;;;;;;;21.44;53.58;100436.00;5074882;28;20031;-46
2022/06/24 11:53:05;;;;;;;9.90;7.50;;;;;;;21.48;54.11;100428.69;5092813;28;20030;-42
2022/06/24 11:55:32;;;;;;;8.35;6.18;;;;;;;21.44;52.66;100424.50;5093020;28;20457;-46
2022/06/24 11:57:59;;;;;;;7.82;6.47;;;;;;;21.46;53.67;100417.28;5093153;28;20024;-47
2022/06/24 12:00:27;;;;;;;8.05;5.75;;;;;;;21.42;53.19;100432.63;5075308;28;20016;-45
2022/06/24 12:02:54;;;;;;;8.02;5.38;;;;;;;21.45;52.59;100434.22;5092336;28;20016;-43
2022/06/24 12:05:19;;;;;;;7.68;5.63;;;;;;;21.43;52.80;100418.34;5092259;28;20130;-44
2022/06/24 12:07:45;;;;;;;5.93;5.00;;;;;;;21.43;52.94;100425.47;5074293;28;20437;-44
2022/06/24 12:10:13;;;;;;;6.97;5.03;;;;;;;21.49;52.39;100427.72;5074771;28;20020;-45
2022/06/24 12:13:08;;;;;;;8.43;4.97;;;;;;;21.44;52.10;100413.88;5058557;28;20051;-52
2022/06/24 12:15:36;;;;;;;6.70;5.05;;;;;;;21.53;51.08;100413.28;5074900;28;20043;-65
2022/06/24 12:18:22;;;;;;;5.75;4.90;;;;;;;21.52;51.95;100406.28;5093168;28;20053;-57
2022/06/24 12:21:13;;;;;;;5.55;4.95;;;;;;;21.53;52.00;100397.31;5081104;28;20085;-63
2022/06/24 12:23:44;;;;;;;9.32;5.20;;;;;;;21.58;50.63;100400.53;5091896;28;20071;-51
2022/06/24 12:26:15;;;;;;;8.15;5.00;;;;;;;21.54;51.35;100400.84;5078644;28;20151;-49
2022/06/24 12:28:43;;;;;;;8.43;5.05;;;;;;;21.55;51.45;100389.25;5078195;28;20016;-49
2022/06/24 12:31:14;;;;;;;8.10;5.28;;;;;;;21.64;51.16;100391.31;5076804;28;20028;-50
2022/06/24 12:33:46;;;;;;;11.77;4.28;;;;;;;21.72;50.78;100394.31;5073402;28;20032;-51
2022/06/24 12:36:15;;;;;;;14.27;5.10;;;;;;;21.70;51.12;100383.81;5077484;28;20024;-61
2022/06/24 12:38:53;;;;;;;16.02;4.85;;;;;;;21.45;51.74;100396.97;5077260;28;20051;-62
2022/06/24 12:41:19;;;;;;;9.68;4.38;;;;;;;21.10;52.35;100388.56;5077344;28;20031;-65
2022/06/24 12:43:55;;;;;;;5.72;4.43;;;;;;;20.96;52.87;100379.63;5077357;28;20433;-59
2022/06/24 12:46:24;;;;;;;9.68;4.80;;;;;;;20.92;52.78;100379.91;5078773;28;20031;-62
2022/06/24 12:51:47;;;;;;;9.07;4.20;;;;;;;20.92;52.61;100385.22;5082378;28;20050;-59
2022/06/24 12:54:12;;;;;;;5.47;3.85;;;;;;;20.94;52.45;100378.88;5063498;28;20034;-57
2022/06/24 12:56:41;;;;;;;7.18;5.15;;;;;;;20.93;52.22;100384.28;5079580;28;20449;-58
2022/06/24 12:59:06;;;;;;;9.60;4.60;;;;;;;20.94;51.98;100370.91;5096844;28;20089;-60
2022/06/24 13:01:42;;;;;;;7.80;4.13;;;;;;;20.95;52.12;100359.31;5097296;28;20028;-65
2022/06/24 13:04:07;;;;;;;9.65;4.32;;;;;;;20.98;51.50;100364.44;5080732;28;20103;-65
2022/06/24 13:06:36;;;;;;;9.93;3.70;;;;;;;20.97;50.92;100357.41;5046235;28;20342;-66
2022/06/24 13:09:04;;;;;;;5.57;4.40;;;;;;;20.97;51.14;100353.91;5097043;28;20035;-69
2022/06/24 13:11:29;;;;;;;6.68;3.85;;;;;;;20.99;50.80;100352.00;5062641;28;20070;-64
2022/06/24 13:13:55;;;;;;;7.28;3.85;;;;;;;20.99;50.69;100359.97;5065026;28;20024;-67
2022/06/24 13:16:20;;;;;;;6.47;3.72;;;;;;;21.00;50.70;100359.00;5079726;28;20089;-64
2022/06/24 13:18:45;;;;;;;25.70;7.25;;;;;;;21.03;51.22;100364.16;5097120;28;20027;-61
2022/06/24 13:21:11;;;;;;;12.05;3.85;;;;;;;21.05;51.13;100354.28;5096904;28;20093;-56
2022/06/24 13:23:39;;;;;;;8.20;4.10;;;;;;;21.05;52.21;100335.69;5096795;28;20054;-67
2022/06/24 13:26:06;;;;;;;6.80;3.88;;;;;;;21.05;52.22;100349.81;5096446;28;20457;-67
2022/06/24 13:28:35;;;;;;;8.43;4.40;;;;;;;21.05;53.84;100355.13;5078604;28;20067;-68
2022/06/24 13:31:04;;;;;;;6.07;3.97;;;;;;;21.03;55.38;100350.88;5096810;28;20035;-66
2022/06/24 13:33:29;;;;;;;8.43;4.40;;;;;;;20.99;55.21;100344.88;5062212;28;20032;-68
2022/06/24 13:35:55;;;;;;;7.15;4.10;;;;;;;21.00;54.04;100340.41;5078881;28;20078;-66
2022/06/24 13:38:25;;;;;;;7.72;4.32;;;;;;;21.00;53.68;100346.59;5078876;28;20337;-64
2022/06/24 13:40:51;;;;;;;12.63;4.50;;;;;;;21.01;54.08;100358.09;5096542;28;20020;-64
2022/06/24 13:43:18;;;;;;;9.95;4.47;;;;;;;21.03;53.77;100350.88;5096391;28;20031;-63
2022/06/24 13:45:45;;;;;;;11.73;4.80;;;;;;;21.01;53.90;100336.81;5096850;28;20072;-64
2022/06/24 13:48:11;;;;;;;22.75;5.78;;;;;;;21.04;54.12;100339.28;5079505;28;20028;-64
